sensor_id;sensor_type;location;lat;lon;timestamp;P1;durP1;ratioP1;P2;durP2;ratioP2
22814;SDS011;11574;51.058;13.712;2023-05-10T00:03:11;4.20;;;1.70;;
22814;SDS011;11574;51.058;13.712;2023-05-10T00:08:13;3.63;;;1.70;;
22814;SDS011;11574;51.058;13.712;2023-05-10T00:13:16;4.40;;;1.70;;
22814;SDS011;11574;51.058;13.712;2023-05-10T00:18:19;2.50;;;1.60;;
22814;SDS011;11574;51.058;13.712;2023-05-10T00:23:22;6.57;;;1.80;;
22814;SDS011;11574;51.058;13.712;2023-05-10T00:28:24;4.33;;;1.90;;
22814;SDS011;11574;51.058;13.712;2023-05-10T00:33:27;7.97;;;2.10;;
22814;SDS011;11574;51.058;13.712;2023-05-10T00:38:30;2.90;;;1.63;;
22814;SDS011;11574;51.058;13.712;2023-05-10T00:43:32;3.30;;;1.73;;
22814;SDS011;11574;51.058;13.712;2023-05-10T00:48:36;2.83;;;1.57;;
22814;SDS011;11574;51.058;13.712;2023-05-10T00:53:38;3.77;;;1.70;;
22814;SDS011;11574;51.058;13.712;2023-05-10T00:58:40;4.17;;;1.50;;
22814;SDS011;11574;51.058;13.712;2023-05-10T01:03:44;3.20;;;1.87;;
22814;SDS011;11574;51.058;13.712;2023-05-10T01:08:46;5.67;;;1.63;;
22814;SDS011;11574;51.058;13.712;2023-05-10T01:13:52;3.80;;;1.60;;
22814;SDS011;11574;51.058;13.712;2023-05-10T01:18:57;7.03;;;1.60;;
22814;SDS011;11574;51.058;13.712;2023-05-10T01:29:27;3.43;;;1.73;;
22814;SDS011;11574;51.058;13.712;2023-05-10T01:34:34;3.30;;;1.80;;
22814;SDS011;11574;51.058;13.712;2023-05-10T01:39:42;2.40;;;1.57;;
22814;SDS011;11574;51.058;13.712;2023-05-10T01:44:49;2.03;;;1.60;;
22814;SDS011;11574;51.058;13.712;2023-05-10T01:49:56;3.73;;;1.57;;
22814;SDS011;11574;51.058;13.712;2023-05-10T01:55:01;3.07;;;1.57;;
22814;SDS011;11574;51.058;13.712;2023-05-10T02:00:04;3.20;;;1.50;;
22814;SDS011;11574;51.058;13.712;2023-05-10T02:05:10;4.20;;;1.60;;
22814;SDS011;11574;51.058;13.712;2023-05-10T02:10:13;3.13;;;1.50;;
22814;SDS011;11574;51.058;13.712;2023-05-10T02:15:17;2.83;;;1.67;;
22814;SDS011;11574;51.058;13.712;2023-05-10T02:20:22;6.77;;;2.30;;
22814;SDS011;11574;51.058;13.712;2023-05-10T02:25:25;2.93;;;1.63;;
22814;SDS011;11574;51.058;13.712;2023-05-10T02:30:27;3.03;;;1.53;;
22814;SDS011;11574;51.058;13.712;2023-05-10T02:35:32;2.23;;;1.73;;
22814;SDS011;11574;51.058;13.712;2023-05-10T02:40:34;2.63;;;1.80;;
22814;SDS011;11574;51.058;13.712;2023-05-10T02:45:38;2.93;;;1.57;;
22814;SDS011;11574;51.058;13.712;2023-05-10T02:50:43;2.90;;;1.73;;
22814;SDS011;11574;51.058;13.712;2023-05-10T02:55:48;3.60;;;1.77;;
22814;SDS011;11574;51.058;13.712;2023-05-10T03:00:51;2.73;;;1.50;;
22814;SDS011;11574;51.058;13.712;2023-05-10T03:05:55;3.03;;;1.60;;
22814;SDS011;11574;51.058;13.712;2023-05-10T03:11:01;4.87;;;2.00;;
22814;SDS011;11574;51.058;13.712;2023-05-10T03:16:10;6.67;;;1.80;;
22814;SDS011;11574;51.058;13.712;2023-05-10T03:21:14;3.70;;;1.60;;
22814;SDS011;11574;51.058;13.712;2023-05-10T03:26:20;4.30;;;1.73;;
22814;SDS011;11574;51.058;13.712;2023-05-10T03:31:25;3.47;;;1.73;;
22814;SDS011;11574;51.058;13.712;2023-05-10T03:36:29;4.10;;;1.60;;
22814;SDS011;11574;51.058;13.712;2023-05-10T03:41:31;6.27;;;1.80;;
22814;SDS011;11574;51.058;13.712;2023-05-10T03:46:33;3.53;;;1.57;;
22814;SDS011;11574;51.058;13.712;2023-05-10T03:51:37;4.03;;;1.50;;
22814;SDS011;11574;51.058;13.712;2023-05-10T03:56:39;3.30;;;1.73;;
22814;SDS011;11574;51.058;13.712;2023-05-10T04:01:41;3.20;;;2.10;;
22814;SDS011;11574;51.058;13.712;2023-05-10T04:06:45;3.40;;;1.80;;
22814;SDS011;11574;51.058;13.712;2023-05-10T04:11:47;4.17;;;1.90;;
22814;SDS011;11574;51.058;13.712;2023-05-10T04:16:49;2.43;;;1.70;;
22814;SDS011;11574;51.058;13.712;2023-05-10T04:21:52;3.23;;;1.70;;
22814;SDS011;11574;51.058;13.712;2023-05-10T04:26:55;4.53;;;1.77;;
22814;SDS011;11574;51.058;13.712;2023-05-10T04:31:57;3.30;;;1.80;;
22814;SDS011;11574;51.058;13.712;2023-05-10T04:37:00;4.53;;;1.47;;
22814;SDS011;11574;51.058;13.712;2023-05-10T04:42:03;2.00;;;1.43;;
22814;SDS011;11574;51.058;13.712;2023-05-10T04:47:05;2.70;;;1.50;;
22814;SDS011;11574;51.058;13.712;2023-05-10T04:52:09;3.53;;;2.33;;
22814;SDS011;11574;51.058;13.712;2023-05-10T04:57:11;6.20;;;1.70;;
22814;SDS011;11574;51.058;13.712;2023-05-10T05:02:13;2.37;;;1.40;;
22814;SDS011;11574;51.058;13.712;2023-05-10T05:07:17;3.57;;;1.87;;
22814;SDS011;11574;51.058;13.712;2023-05-10T05:12:19;4.67;;;1.60;;
22814;SDS011;11574;51.058;13.712;2023-05-10T05:17:21;4.33;;;2.00;;
22814;SDS011;11574;51.058;13.712;2023-05-10T05:22:25;2.77;;;1.80;;
22814;SDS011;11574;51.058;13.712;2023-05-10T05:27:28;2.57;;;1.90;;
22814;SDS011;11574;51.058;13.712;2023-05-10T05:32:30;1.83;;;1.53;;
22814;SDS011;11574;51.058;13.712;2023-05-10T05:37:34;5.80;;;1.60;;
22814;SDS011;11574;51.058;13.712;2023-05-10T05:42:37;4.83;;;1.90;;
22814;SDS011;11574;51.058;13.712;2023-05-10T05:47:39;3.20;;;1.53;;
22814;SDS011;11574;51.058;13.712;2023-05-10T05:52:43;5.27;;;1.60;;
22814;SDS011;11574;51.058;13.712;2023-05-10T05:57:45;4.70;;;1.77;;
22814;SDS011;11574;51.058;13.712;2023-05-10T06:02:47;5.87;;;1.90;;
22814;SDS011;11574;51.058;13.712;2023-05-10T06:07:51;5.93;;;1.67;;
22814;SDS011;11574;51.058;13.712;2023-05-10T06:12:53;2.03;;;1.37;;
22814;SDS011;11574;51.058;13.712;2023-05-10T06:17:56;4.03;;;1.80;;
22814;SDS011;11574;51.058;13.712;2023-05-10T06:22:59;2.97;;;1.60;;
22814;SDS011;11574;51.058;13.712;2023-05-10T06:28:01;6.23;;;2.00;;
22814;SDS011;11574;51.058;13.712;2023-05-10T06:33:04;3.80;;;1.67;;
22814;SDS011;11574;51.058;13.712;2023-05-10T06:38:08;9.53;;;1.77;;
22814;SDS011;11574;51.058;13.712;2023-05-10T06:43:10;9.93;;;1.70;;
22814;SDS011;11574;51.058;13.712;2023-05-10T06:48:13;3.40;;;2.00;;
22814;SDS011;11574;51.058;13.712;2023-05-10T06:53:16;2.43;;;1.73;;
22814;SDS011;11574;51.058;13.712;2023-05-10T06:58:18;4.13;;;1.73;;
22814;SDS011;11574;51.058;13.712;2023-05-10T07:03:21;7.87;;;1.80;;
22814;SDS011;11574;51.058;13.712;2023-05-10T07:08:24;6.70;;;1.93;;
22814;SDS011;11574;51.058;13.712;2023-05-10T07:13:26;2.20;;;1.80;;
22814;SDS011;11574;51.058;13.712;2023-05-10T07:18:29;5.77;;;1.93;;
22814;SDS011;11574;51.058;13.712;2023-05-10T07:23:32;2.63;;;1.90;;
22814;SDS011;11574;51.058;13.712;2023-05-10T07:28:34;6.30;;;2.10;;
22814;SDS011;11574;51.058;13.712;2023-05-10T07:33:37;4.43;;;1.90;;
22814;SDS011;11574;51.058;13.712;2023-05-10T07:38:41;4.10;;;1.90;;
22814;SDS011;11574;51.058;13.712;2023-05-10T07:43:43;4.10;;;2.23;;
22814;SDS011;11574;51.058;13.712;2023-05-10T07:48:46;2.90;;;1.97;;
22814;SDS011;11574;51.058;13.712;2023-05-10T07:53:49;4.57;;;2.40;;
22814;SDS011;11574;51.058;13.712;2023-05-10T07:58:51;3.10;;;1.97;;
22814;SDS011;11574;51.058;13.712;2023-05-10T08:03:54;3.83;;;2.20;;
22814;SDS011;11574;51.058;13.712;2023-05-10T08:08:57;4.60;;;2.07;;
22814;SDS011;11574;51.058;13.712;2023-05-10T08:13:59;4.00;;;1.87;;
22814;SDS011;11574;51.058;13.712;2023-05-10T08:19:02;6.80;;;2.47;;
22814;SDS011;11574;51.058;13.712;2023-05-10T08:24:06;3.47;;;1.77;;
22814;SDS011;11574;51.058;13.712;2023-05-10T08:29:08;11.23;;;2.77;;
22814;SDS011;11574;51.058;13.712;2023-05-10T08:34:10;5.07;;;2.23;;
22814;SDS011;11574;51.058;13.712;2023-05-10T08:39:14;2.90;;;1.90;;
22814;SDS011;11574;51.058;13.712;2023-05-10T08:44:16;4.93;;;2.10;;
22814;SDS011;11574;51.058;13.712;2023-05-10T08:49:19;4.73;;;2.10;;
22814;SDS011;11574;51.058;13.712;2023-05-10T08:54:23;5.07;;;2.30;;
22814;SDS011;11574;51.058;13.712;2023-05-10T08:59:26;5.83;;;2.13;;
22814;SDS011;11574;51.058;13.712;2023-05-10T09:04:28;5.97;;;2.10;;
22814;SDS011;11574;51.058;13.712;2023-05-10T09:09:32;4.20;;;1.97;;
22814;SDS011;11574;51.058;13.712;2023-05-10T09:14:35;11.67;;;2.47;;
22814;SDS011;11574;51.058;13.712;2023-05-10T09:19:38;7.93;;;2.07;;
22814;SDS011;11574;51.058;13.712;2023-05-10T09:24:41;4.37;;;2.23;;
22814;SDS011;11574;51.058;13.712;2023-05-10T09:29:45;4.27;;;2.33;;
22814;SDS011;11574;51.058;13.712;2023-05-10T09:34:47;7.27;;;2.20;;
22814;SDS011;11574;51.058;13.712;2023-05-10T09:39:53;8.00;;;2.50;;
22814;SDS011;11574;51.058;13.712;2023-05-10T09:44:59;5.17;;;2.70;;
22814;SDS011;11574;51.058;13.712;2023-05-10T09:50:02;3.03;;;2.20;;
22814;SDS011;11574;51.058;13.712;2023-05-10T09:55:06;3.43;;;1.93;;
22814;SDS011;11574;51.058;13.712;2023-05-10T10:00:08;5.53;;;2.03;;
22814;SDS011;11574;51.058;13.712;2023-05-10T10:05:11;5.60;;;2.43;;
22814;SDS011;11574;51.058;13.712;2023-05-10T10:10:14;3.73;;;2.50;;
22814;SDS011;11574;51.058;13.712;2023-05-10T10:15:17;5.13;;;2.20;;
22814;SDS011;11574;51.058;13.712;2023-05-10T10:20:20;8.53;;;2.37;;
22814;SDS011;11574;51.058;13.712;2023-05-10T10:25:24;5.53;;;2.17;;
22814;SDS011;11574;51.058;13.712;2023-05-10T10:30:27;5.87;;;2.47;;
22814;SDS011;11574;51.058;13.712;2023-05-10T10:35:31;3.73;;;2.10;;
22814;SDS011;11574;51.058;13.712;2023-05-10T10:40:35;3.80;;;2.50;;
22814;SDS011;11574;51.058;13.712;2023-05-10T10:45:38;3.83;;;2.40;;
22814;SDS011;11574;51.058;13.712;2023-05-10T10:50:44;4.73;;;2.43;;
22814;SDS011;11574;51.058;13.712;2023-05-10T10:55:48;3.80;;;2.60;;
22814;SDS011;11574;51.058;13.712;2023-05-10T11:00:50;4.00;;;2.30;;
22814;SDS011;11574;51.058;13.712;2023-05-10T11:06:10;4.00;;;2.77;;
22814;SDS011;11574;51.058;13.712;2023-05-10T11:11:15;13.70;;;2.80;;
22814;SDS011;11574;51.058;13.712;2023-05-10T11:16:17;7.20;;;2.30;;
22814;SDS011;11574;51.058;13.712;2023-05-10T11:21:20;5.57;;;2.60;;
22814;SDS011;11574;51.058;13.712;2023-05-10T11:26:24;6.90;;;3.00;;
22814;SDS011;11574;51.058;13.712;2023-05-10T11:31:26;4.80;;;2.67;;
22814;SDS011;11574;51.058;13.712;2023-05-10T11:36:29;4.07;;;2.87;;
22814;SDS011;11574;51.058;13.712;2023-05-10T11:41:33;6.43;;;2.77;;
22814;SDS011;11574;51.058;13.712;2023-05-10T11:46:35;6.60;;;2.90;;
22814;SDS011;11574;51.058;13.712;2023-05-10T11:51:38;8.17;;;2.77;;
22814;SDS011;11574;51.058;13.712;2023-05-10T11:56:43;6.80;;;2.57;;
22814;SDS011;11574;51.058;13.712;2023-05-10T12:01:46;7.53;;;2.73;;
22814;SDS011;11574;51.058;13.712;2023-05-10T12:06:48;3.73;;;2.57;;
22814;SDS011;11574;51.058;13.712;2023-05-10T12:11:54;6.53;;;2.40;;
22814;SDS011;11574;51.058;13.712;2023-05-10T12:16:57;6.23;;;2.73;;
22814;SDS011;11574;51.058;13.712;2023-05-10T12:21:59;5.60;;;3.07;;
22814;SDS011;11574;51.058;13.712;2023-05-10T12:27:08;4.80;;;2.70;;
22814;SDS011;11574;51.058;13.712;2023-05-10T12:32:12;5.77;;;2.40;;
22814;SDS011;11574;51.058;13.712;2023-05-10T12:37:14;5.37;;;2.70;;
22814;SDS011;11574;51.058;13.712;2023-05-10T12:42:18;4.13;;;2.30;;
22814;SDS011;11574;51.058;13.712;2023-05-10T12:47:20;5.67;;;2.70;;
22814;SDS011;11574;51.058;13.712;2023-05-10T12:52:23;3.93;;;2.60;;
22814;SDS011;11574;51.058;13.712;2023-05-10T12:57:27;3.30;;;2.67;;
22814;SDS011;11574;51.058;13.712;2023-05-10T13:02:29;3.60;;;2.20;;
22814;SDS011;11574;51.058;13.712;2023-05-10T13:07:31;4.67;;;2.60;;
22814;SDS011;11574;51.058;13.712;2023-05-10T13:12:35;5.37;;;2.40;;
22814;SDS011;11574;51.058;13.712;2023-05-10T13:17:37;3.70;;;2.40;;
22814;SDS011;11574;51.058;13.712;2023-05-10T13:22:40;7.17;;;2.80;;
22814;SDS011;11574;51.058;13.712;2023-05-10T13:27:44;4.30;;;2.83;;
22814;SDS011;11574;51.058;13.712;2023-05-10T13:32:46;3.90;;;2.93;;
22814;SDS011;11574;51.058;13.712;2023-05-10T13:37:48;4.00;;;2.23;;
22814;SDS011;11574;51.058;13.712;2023-05-10T13:42:53;2.77;;;2.20;;
22814;SDS011;11574;51.058;13.712;2023-05-10T13:47:55;6.57;;;3.10;;
22814;SDS011;11574;51.058;13.712;2023-05-10T13:52:57;7.73;;;2.60;;
22814;SDS011;11574;51.058;13.712;2023-05-10T13:58:01;5.83;;;2.53;;
22814;SDS011;11574;51.058;13.712;2023-05-10T14:03:03;6.37;;;2.40;;
22814;SDS011;11574;51.058;13.712;2023-05-10T14:08:06;3.90;;;2.50;;
22814;SDS011;11574;51.058;13.712;2023-05-10T14:13:11;3.20;;;2.00;;
22814;SDS011;11574;51.058;13.712;2023-05-10T14:18:13;3.67;;;2.50;;
22814;SDS011;11574;51.058;13.712;2023-05-10T14:23:16;4.97;;;2.50;;
22814;SDS011;11574;51.058;13.712;2023-05-10T14:28:21;3.03;;;2.23;;
22814;SDS011;11574;51.058;13.712;2023-05-10T14:33:23;3.57;;;2.00;;
22814;SDS011;11574;51.058;13.712;2023-05-10T14:38:25;6.20;;;2.20;;
22814;SDS011;11574;51.058;13.712;2023-05-10T14:43:29;5.93;;;2.57;;
22814;SDS011;11574;51.058;13.712;2023-05-10T14:48:31;5.27;;;3.33;;
22814;SDS011;11574;51.058;13.712;2023-05-10T14:53:33;6.63;;;3.00;;
22814;SDS011;11574;51.058;13.712;2023-05-10T14:58:37;5.57;;;3.13;;
22814;SDS011;11574;51.058;13.712;2023-05-10T15:03:39;4.77;;;2.30;;
22814;SDS011;11574;51.058;13.712;2023-05-10T15:08:41;4.73;;;2.57;;
22814;SDS011;11574;51.058;13.712;2023-05-10T15:13:45;6.30;;;2.43;;
22814;SDS011;11574;51.058;13.712;2023-05-10T15:18:47;3.60;;;2.50;;
22814;SDS011;11574;51.058;13.712;2023-05-10T15:23:49;9.03;;;2.30;;
22814;SDS011;11574;51.058;13.712;2023-05-10T15:28:53;6.80;;;2.33;;
22814;SDS011;11574;51.058;13.712;2023-05-10T15:33:56;3.87;;;2.30;;
22814;SDS011;11574;51.058;13.712;2023-05-10T15:38:59;5.63;;;2.30;;
22814;SDS011;11574;51.058;13.712;2023-05-10T15:44:03;5.57;;;2.40;;
22814;SDS011;11574;51.058;13.712;2023-05-10T15:49:05;10.77;;;2.60;;
22814;SDS011;11574;51.058;13.712;2023-05-10T15:54:07;5.23;;;2.50;;
22814;SDS011;11574;51.058;13.712;2023-05-10T15:59:11;3.07;;;2.53;;
22814;SDS011;11574;51.058;13.712;2023-05-10T16:04:14;5.93;;;2.70;;
22814;SDS011;11574;51.058;13.712;2023-05-10T16:09:16;4.50;;;2.67;;
22814;SDS011;11574;51.058;13.712;2023-05-10T16:14:20;7.93;;;2.30;;
22814;SDS011;11574;51.058;13.712;2023-05-10T16:19:23;4.60;;;2.40;;
22814;SDS011;11574;51.058;13.712;2023-05-10T16:24:26;4.13;;;2.30;;
22814;SDS011;11574;51.058;13.712;2023-05-10T16:29:29;6.70;;;2.83;;
22814;SDS011;11574;51.058;13.712;2023-05-10T16:34:31;6.93;;;2.30;;
22814;SDS011;11574;51.058;13.712;2023-05-10T16:39:34;3.33;;;2.43;;
22814;SDS011;11574;51.058;13.712;2023-05-10T16:44:37;6.03;;;2.50;;
22814;SDS011;11574;51.058;13.712;2023-05-10T16:49:40;4.07;;;2.63;;
22814;SDS011;11574;51.058;13.712;2023-05-10T16:54:42;5.43;;;2.70;;
22814;SDS011;11574;51.058;13.712;2023-05-10T16:59:45;7.33;;;2.97;;
22814;SDS011;11574;51.058;13.712;2023-05-10T17:04:48;3.97;;;2.40;;
22814;SDS011;11574;51.058;13.712;2023-05-10T17:09:52;3.50;;;2.50;;
22814;SDS011;11574;51.058;13.712;2023-05-10T17:14:55;7.30;;;2.60;;
22814;SDS011;11574;51.058;13.712;2023-05-10T17:19:58;5.77;;;3.17;;
22814;SDS011;11574;51.058;13.712;2023-05-10T17:25:00;6.07;;;2.47;;
22814;SDS011;11574;51.058;13.712;2023-05-10T17:30:05;3.80;;;2.87;;
22814;SDS011;11574;51.058;13.712;2023-05-10T17:35:07;4.43;;;2.80;;
22814;SDS011;11574;51.058;13.712;2023-05-10T17:40:10;4.87;;;2.53;;
22814;SDS011;11574;51.058;13.712;2023-05-10T17:45:13;3.10;;;2.10;;
22814;SDS011;11574;51.058;13.712;2023-05-10T17:50:16;5.23;;;2.00;;
22814;SDS011;11574;51.058;13.712;2023-05-10T17:55:18;3.23;;;1.90;;
22814;SDS011;11574;51.058;13.712;2023-05-10T18:00:22;3.37;;;1.60;;
22814;SDS011;11574;51.058;13.712;2023-05-10T18:05:24;2.20;;;1.60;;
22814;SDS011;11574;51.058;13.712;2023-05-10T18:10:27;2.73;;;1.87;;
22814;SDS011;11574;51.058;13.712;2023-05-10T18:15:31;3.70;;;1.73;;
22814;SDS011;11574;51.058;13.712;2023-05-10T18:20:33;4.53;;;1.90;;
22814;SDS011;11574;51.058;13.712;2023-05-10T18:25:35;4.03;;;1.53;;
22814;SDS011;11574;51.058;13.712;2023-05-10T18:30:40;1.83;;;1.47;;
22814;SDS011;11574;51.058;13.712;2023-05-10T18:35:42;2.03;;;1.40;;
22814;SDS011;11574;51.058;13.712;2023-05-10T18:40:45;5.20;;;1.23;;
22814;SDS011;11574;51.058;13.712;2023-05-10T18:45:48;4.13;;;1.57;;
22814;SDS011;11574;51.058;13.712;2023-05-10T18:50:51;1.87;;;1.33;;
22814;SDS011;11574;51.058;13.712;2023-05-10T18:55:54;2.03;;;1.80;;
22814;SDS011;11574;51.058;13.712;2023-05-10T19:00:58;3.03;;;1.60;;
22814;SDS011;11574;51.058;13.712;2023-05-10T19:06:01;2.53;;;2.07;;
22814;SDS011;11574;51.058;13.712;2023-05-10T19:11:03;3.40;;;1.90;;
22814;SDS011;11574;51.058;13.712;2023-05-10T19:16:09;4.00;;;1.63;;
22814;SDS011;11574;51.058;13.712;2023-05-10T19:21:11;3.13;;;1.90;;
22814;SDS011;11574;51.058;13.712;2023-05-10T19:26:13;3.57;;;1.60;;
22814;SDS011;11574;51.058;13.712;2023-05-10T19:31:17;2.07;;;1.70;;
22814;SDS011;11574;51.058;13.712;2023-05-10T19:36:19;1.90;;;1.70;;
22814;SDS011;11574;51.058;13.712;2023-05-10T19:41:22;8.23;;;2.20;;
22814;SDS011;11574;51.058;13.712;2023-05-10T19:46:25;4.13;;;1.90;;
22814;SDS011;11574;51.058;13.712;2023-05-10T19:51:28;2.17;;;1.70;;
22814;SDS011;11574;51.058;13.712;2023-05-10T19:56:30;2.90;;;1.93;;
22814;SDS011;11574;51.058;13.712;2023-05-10T20:01:34;4.93;;;2.00;;
22814;SDS011;11574;51.058;13.712;2023-05-10T20:06:36;4.50;;;2.13;;
22814;SDS011;11574;51.058;13.712;2023-05-10T20:11:38;3.87;;;2.67;;
22814;SDS011;11574;51.058;13.712;2023-05-10T20:16:42;3.07;;;2.10;;
22814;SDS011;11574;51.058;13.712;2023-05-10T20:21:44;6.20;;;2.33;;
22814;SDS011;11574;51.058;13.712;2023-05-10T20:26:46;2.73;;;2.10;;
22814;SDS011;11574;51.058;13.712;2023-05-10T20:31:50;3.10;;;2.30;;
22814;SDS011;11574;51.058;13.712;2023-05-10T20:36:52;4.23;;;2.70;;
22814;SDS011;11574;51.058;13.712;2023-05-10T20:41:54;5.60;;;3.00;;
22814;SDS011;11574;51.058;13.712;2023-05-10T20:46:58;5.80;;;2.80;;
22814;SDS011;11574;51.058;13.712;2023-05-10T20:52:00;8.20;;;3.20;;
22814;SDS011;11574;51.058;13.712;2023-05-10T20:57:02;5.83;;;2.80;;
22814;SDS011;11574;51.058;13.712;2023-05-10T21:02:06;3.93;;;2.70;;
22814;SDS011;11574;51.058;13.712;2023-05-10T21:07:08;3.00;;;2.37;;
22814;SDS011;11574;51.058;13.712;2023-05-10T21:12:11;3.57;;;2.90;;
22814;SDS011;11574;51.058;13.712;2023-05-10T21:17:15;4.90;;;3.23;;
22814;SDS011;11574;51.058;13.712;2023-05-10T21:22:17;6.60;;;3.23;;
22814;SDS011;11574;51.058;13.712;2023-05-10T21:27:19;4.73;;;2.90;;
22814;SDS011;11574;51.058;13.712;2023-05-10T21:32:23;8.13;;;2.87;;
22814;SDS011;11574;51.058;13.712;2023-05-10T21:37:25;4.07;;;3.00;;
22814;SDS011;11574;51.058;13.712;2023-05-10T21:42:27;5.33;;;2.70;;
22814;SDS011;11574;51.058;13.712;2023-05-10T21:47:32;5.13;;;3.30;;
22814;SDS011;11574;51.058;13.712;2023-05-10T21:52:34;7.27;;;3.57;;
22814;SDS011;11574;51.058;13.712;2023-05-10T21:57:36;4.63;;;3.40;;
22814;SDS011;11574;51.058;13.712;2023-05-10T22:02:41;6.20;;;3.40;;
22814;SDS011;11574;51.058;13.712;2023-05-10T22:07:43;10.73;;;4.80;;
22814;SDS011;11574;51.058;13.712;2023-05-10T22:12:46;7.77;;;3.80;;
22814;SDS011;11574;51.058;13.712;2023-05-10T22:17:49;6.73;;;3.47;;
22814;SDS011;11574;51.058;13.712;2023-05-10T22:22:52;5.80;;;3.70;;
22814;SDS011;11574;51.058;13.712;2023-05-10T22:27:54;7.93;;;4.00;;
22814;SDS011;11574;51.058;13.712;2023-05-10T22:32:58;7.27;;;4.40;;
22814;SDS011;11574;51.058;13.712;2023-05-10T22:38:00;5.90;;;3.93;;
22814;SDS011;11574;51.058;13.712;2023-05-10T22:43:03;4.63;;;3.73;;
22814;SDS011;11574;51.058;13.712;2023-05-10T22:48:06;5.33;;;3.73;;
22814;SDS011;11574;51.058;13.712;2023-05-10T22:53:09;6.13;;;3.57;;
22814;SDS011;11574;51.058;13.712;2023-05-10T22:58:11;5.23;;;3.70;;
22814;SDS011;11574;51.058;13.712;2023-05-10T23:03:15;7.33;;;4.00;;
22814;SDS011;11574;51.058;13.712;2023-05-10T23:08:17;6.23;;;3.83;;
22814;SDS011;11574;51.058;13.712;2023-05-10T23:13:19;5.23;;;3.73;;
22814;SDS011;11574;51.058;13.712;2023-05-10T23:18:23;7.43;;;3.77;;
22814;SDS011;11574;51.058;13.712;2023-05-10T23:23:25;4.90;;;3.60;;
22814;SDS011;11574;51.058;13.712;2023-05-10T23:28:27;4.90;;;3.40;;
22814;SDS011;11574;51.058;13.712;2023-05-10T23:33:31;5.97;;;3.40;;
22814;SDS011;11574;51.058;13.712;2023-05-10T23:38:33;5.73;;;4.37;;
22814;SDS011;11574;51.058;13.712;2023-05-10T23:43:35;7.80;;;4.47;;
22814;SDS011;11574;51.058;13.712;2023-05-10T23:48:39;5.50;;;3.90;;
22814;SDS011;11574;51.058;13.712;2023-05-10T23:53:41;11.07;;;4.03;;
22814;SDS011;11574;51.058;13.712;2023-05-10T23:58:43;4.60;;;3.63;;
